sensor_id;sensor_type;location;lat;lon;timestamp;P1;durP1;ratioP1;P2;durP2;ratioP2
6205;SDS011;3136;48.788;9.772;2022-08-25T00:01:34;5.57;;;4.00;;
6205;SDS011;3136;48.788;9.772;2022-08-25T00:04:03;5.00;;;4.20;;
6205;SDS011;3136;48.788;9.772;2022-08-25T00:06:31;4.63;;;4.10;;
6205;SDS011;3136;48.788;9.772;2022-08-25T00:08:57;4.80;;;4.30;;
6205;SDS011;3136;48.788;9.772;2022-08-25T00:11:24;4.87;;;4.20;;
6205;SDS011;3136;48.788;9.772;2022-08-25T00:13:54;6.17;;;4.67;;
6205;SDS011;3136;48.788;9.772;2022-08-25T00:16:22;5.97;;;4.47;;
6205;SDS011;3136;48.788;9.772;2022-08-25T00:18:53;7.20;;;4.20;;
6205;SDS011;3136;48.788;9.772;2022-08-25T00:21:21;7.40;;;4.77;;
6205;SDS011;3136;48.788;9.772;2022-08-25T00:23:48;5.80;;;4.67;;
6205;SDS011;3136;48.788;9.772;2022-08-25T00:26:15;4.87;;;4.37;;
6205;SDS011;3136;48.788;9.772;2022-08-25T00:28:41;6.63;;;4.47;;
6205;SDS011;3136;48.788;9.772;2022-08-25T00:31:12;7.20;;;4.47;;
6205;SDS011;3136;48.788;9.772;2022-08-25T00:33:40;6.37;;;4.30;;
6205;SDS011;3136;48.788;9.772;2022-08-25T00:36:07;5.43;;;4.47;;
6205;SDS011;3136;48.788;9.772;2022-08-25T00:38:33;6.03;;;4.33;;
6205;SDS011;3136;48.788;9.772;2022-08-25T00:40:59;7.80;;;4.10;;
6205;SDS011;3136;48.788;9.772;2022-08-25T00:46:05;5.63;;;4.57;;
6205;SDS011;3136;48.788;9.772;2022-08-25T00:48:35;8.30;;;4.77;;
6205;SDS011;3136;48.788;9.772;2022-08-25T00:51:03;6.10;;;4.70;;
6205;SDS011;3136;48.788;9.772;2022-08-25T00:53:31;5.60;;;4.40;;
6205;SDS011;3136;48.788;9.772;2022-08-25T00:55:57;5.37;;;4.30;;
6205;SDS011;3136;48.788;9.772;2022-08-25T00:58:24;5.20;;;4.67;;
6205;SDS011;3136;48.788;9.772;2022-08-25T01:00:52;5.80;;;4.57;;
6205;SDS011;3136;48.788;9.772;2022-08-25T01:03:21;5.90;;;4.80;;
6205;SDS011;3136;48.788;9.772;2022-08-25T01:05:48;6.00;;;4.70;;
6205;SDS011;3136;48.788;9.772;2022-08-25T01:08:15;5.47;;;4.60;;
6205;SDS011;3136;48.788;9.772;2022-08-25T01:10:46;5.90;;;4.77;;
6205;SDS011;3136;48.788;9.772;2022-08-25T01:13:18;6.33;;;4.83;;
6205;SDS011;3136;48.788;9.772;2022-08-25T01:15:48;6.63;;;4.43;;
6205;SDS011;3136;48.788;9.772;2022-08-25T01:18:16;6.20;;;4.77;;
6205;SDS011;3136;48.788;9.772;2022-08-25T01:20:42;5.90;;;4.80;;
6205;SDS011;3136;48.788;9.772;2022-08-25T01:23:10;6.30;;;4.77;;
6205;SDS011;3136;48.788;9.772;2022-08-25T01:28:21;5.90;;;5.27;;
6205;SDS011;3136;48.788;9.772;2022-08-25T01:30:47;7.43;;;5.17;;
6205;SDS011;3136;48.788;9.772;2022-08-25T01:33:13;5.00;;;4.50;;
6205;SDS011;3136;48.788;9.772;2022-08-25T01:35:41;5.90;;;5.30;;
6205;SDS011;3136;48.788;9.772;2022-08-25T01:38:06;5.20;;;4.70;;
6205;SDS011;3136;48.788;9.772;2022-08-25T01:40:33;5.00;;;4.53;;
6205;SDS011;3136;48.788;9.772;2022-08-25T01:45:37;7.50;;;4.83;;
6205;SDS011;3136;48.788;9.772;2022-08-25T01:48:05;5.53;;;4.90;;
6205;SDS011;3136;48.788;9.772;2022-08-25T01:50:31;5.13;;;4.63;;
6205;SDS011;3136;48.788;9.772;2022-08-25T01:55:26;6.77;;;5.03;;
6205;SDS011;3136;48.788;9.772;2022-08-25T01:57:53;7.27;;;5.20;;
6205;SDS011;3136;48.788;9.772;2022-08-25T02:00:18;7.77;;;5.70;;
6205;SDS011;3136;48.788;9.772;2022-08-25T02:02:46;6.03;;;5.10;;
6205;SDS011;3136;48.788;9.772;2022-08-25T02:05:13;5.93;;;5.33;;
6205;SDS011;3136;48.788;9.772;2022-08-25T02:07:40;6.40;;;5.30;;
6205;SDS011;3136;48.788;9.772;2022-08-25T02:10:07;7.23;;;5.27;;
6205;SDS011;3136;48.788;9.772;2022-08-25T02:12:34;6.83;;;5.17;;
6205;SDS011;3136;48.788;9.772;2022-08-25T02:15:00;6.90;;;5.70;;
6205;SDS011;3136;48.788;9.772;2022-08-25T02:17:27;5.97;;;4.90;;
6205;SDS011;3136;48.788;9.772;2022-08-25T02:19:53;8.70;;;5.27;;
6205;SDS011;3136;48.788;9.772;2022-08-25T02:22:20;6.73;;;5.63;;
6205;SDS011;3136;48.788;9.772;2022-08-25T02:24:46;6.17;;;5.43;;
6205;SDS011;3136;48.788;9.772;2022-08-25T02:27:12;6.67;;;5.70;;
6205;SDS011;3136;48.788;9.772;2022-08-25T02:29:37;6.90;;;5.47;;
6205;SDS011;3136;48.788;9.772;2022-08-25T02:32:03;8.23;;;5.93;;
6205;SDS011;3136;48.788;9.772;2022-08-25T02:34:29;8.83;;;5.63;;
6205;SDS011;3136;48.788;9.772;2022-08-25T02:36:55;6.07;;;5.17;;
6205;SDS011;3136;48.788;9.772;2022-08-25T02:39:21;6.50;;;5.60;;
6205;SDS011;3136;48.788;9.772;2022-08-25T02:41:46;5.73;;;5.13;;
6205;SDS011;3136;48.788;9.772;2022-08-25T02:44:12;8.20;;;5.30;;
6205;SDS011;3136;48.788;9.772;2022-08-25T02:46:38;6.37;;;5.70;;
6205;SDS011;3136;48.788;9.772;2022-08-25T02:49:04;6.27;;;5.63;;
6205;SDS011;3136;48.788;9.772;2022-08-25T02:51:30;7.70;;;5.20;;
6205;SDS011;3136;48.788;9.772;2022-08-25T02:53:56;7.67;;;6.00;;
6205;SDS011;3136;48.788;9.772;2022-08-25T02:56:23;6.67;;;6.00;;
6205;SDS011;3136;48.788;9.772;2022-08-25T02:58:49;6.67;;;5.97;;
6205;SDS011;3136;48.788;9.772;2022-08-25T03:01:15;7.20;;;5.70;;
6205;SDS011;3136;48.788;9.772;2022-08-25T03:03:41;7.77;;;6.20;;
6205;SDS011;3136;48.788;9.772;2022-08-25T03:06:09;7.10;;;5.97;;
6205;SDS011;3136;48.788;9.772;2022-08-25T03:08:39;6.33;;;5.60;;
6205;SDS011;3136;48.788;9.772;2022-08-25T03:11:06;9.73;;;5.87;;
6205;SDS011;3136;48.788;9.772;2022-08-25T03:13:32;7.17;;;5.97;;
6205;SDS011;3136;48.788;9.772;2022-08-25T03:15:59;8.13;;;6.03;;
6205;SDS011;3136;48.788;9.772;2022-08-25T03:18:25;10.53;;;6.23;;
6205;SDS011;3136;48.788;9.772;2022-08-25T03:20:51;7.23;;;6.03;;
6205;SDS011;3136;48.788;9.772;2022-08-25T03:23:17;8.07;;;6.10;;
6205;SDS011;3136;48.788;9.772;2022-08-25T03:25:43;9.53;;;6.60;;
6205;SDS011;3136;48.788;9.772;2022-08-25T03:28:27;9.50;;;6.53;;
6205;SDS011;3136;48.788;9.772;2022-08-25T03:30:56;9.40;;;5.77;;
6205;SDS011;3136;48.788;9.772;2022-08-25T03:33:24;9.53;;;6.17;;
6205;SDS011;3136;48.788;9.772;2022-08-25T03:35:50;6.60;;;5.77;;
6205;SDS011;3136;48.788;9.772;2022-08-25T03:38:16;8.40;;;6.20;;
6205;SDS011;3136;48.788;9.772;2022-08-25T03:40:41;7.60;;;6.23;;
6205;SDS011;3136;48.788;9.772;2022-08-25T03:43:07;9.00;;;6.70;;
6205;SDS011;3136;48.788;9.772;2022-08-25T03:45:33;10.43;;;6.70;;
6205;SDS011;3136;48.788;9.772;2022-08-25T03:47:58;9.50;;;6.87;;
6205;SDS011;3136;48.788;9.772;2022-08-25T03:50:24;9.10;;;6.30;;
6205;SDS011;3136;48.788;9.772;2022-08-25T03:52:51;8.27;;;6.47;;
6205;SDS011;3136;48.788;9.772;2022-08-25T03:55:18;7.87;;;6.47;;
6205;SDS011;3136;48.788;9.772;2022-08-25T03:57:45;10.00;;;6.70;;
6205;SDS011;3136;48.788;9.772;2022-08-25T04:00:10;8.60;;;6.63;;
6205;SDS011;3136;48.788;9.772;2022-08-25T04:02:36;8.93;;;6.80;;
6205;SDS011;3136;48.788;9.772;2022-08-25T04:05:02;7.30;;;6.47;;
6205;SDS011;3136;48.788;9.772;2022-08-25T04:07:28;7.47;;;6.47;;
6205;SDS011;3136;48.788;9.772;2022-08-25T04:09:54;10.30;;;6.83;;
6205;SDS011;3136;48.788;9.772;2022-08-25T04:12:20;9.30;;;6.93;;
6205;SDS011;3136;48.788;9.772;2022-08-25T04:14:46;9.60;;;7.20;;
6205;SDS011;3136;48.788;9.772;2022-08-25T04:17:11;10.90;;;6.60;;
6205;SDS011;3136;48.788;9.772;2022-08-25T04:19:38;7.03;;;6.33;;
6205;SDS011;3136;48.788;9.772;2022-08-25T04:22:03;10.33;;;6.97;;
6205;SDS011;3136;48.788;9.772;2022-08-25T04:24:29;10.50;;;6.70;;
6205;SDS011;3136;48.788;9.772;2022-08-25T04:26:54;8.37;;;7.17;;
6205;SDS011;3136;48.788;9.772;2022-08-25T04:29:21;8.87;;;7.03;;
6205;SDS011;3136;48.788;9.772;2022-08-25T04:31:48;7.00;;;6.17;;
6205;SDS011;3136;48.788;9.772;2022-08-25T04:34:17;9.93;;;6.73;;
6205;SDS011;3136;48.788;9.772;2022-08-25T04:36:44;8.20;;;6.90;;
6205;SDS011;3136;48.788;9.772;2022-08-25T04:39:10;8.60;;;7.10;;
6205;SDS011;3136;48.788;9.772;2022-08-25T04:41:36;9.90;;;6.77;;
6205;SDS011;3136;48.788;9.772;2022-08-25T04:44:02;10.73;;;6.80;;
6205;SDS011;3136;48.788;9.772;2022-08-25T04:46:29;8.43;;;7.03;;
6205;SDS011;3136;48.788;9.772;2022-08-25T04:48:56;11.27;;;6.97;;
6205;SDS011;3136;48.788;9.772;2022-08-25T04:51:25;8.13;;;6.87;;
6205;SDS011;3136;48.788;9.772;2022-08-25T04:53:59;9.77;;;6.97;;
6205;SDS011;3136;48.788;9.772;2022-08-25T04:56:30;11.93;;;7.30;;
6205;SDS011;3136;48.788;9.772;2022-08-25T04:59:00;8.73;;;7.03;;
6205;SDS011;3136;48.788;9.772;2022-08-25T05:01:28;9.60;;;6.80;;
6205;SDS011;3136;48.788;9.772;2022-08-25T05:03:56;8.07;;;6.87;;
6205;SDS011;3136;48.788;9.772;2022-08-25T05:06:23;9.47;;;7.13;;
6205;SDS011;3136;48.788;9.772;2022-08-25T05:08:49;8.50;;;7.20;;
6205;SDS011;3136;48.788;9.772;2022-08-25T05:11:15;8.77;;;7.27;;
6205;SDS011;3136;48.788;9.772;2022-08-25T05:13:42;8.33;;;7.00;;
6205;SDS011;3136;48.788;9.772;2022-08-25T05:16:09;9.30;;;7.50;;
6205;SDS011;3136;48.788;9.772;2022-08-25T05:18:34;8.53;;;7.47;;
6205;SDS011;3136;48.788;9.772;2022-08-25T05:21:01;7.97;;;6.73;;
6205;SDS011;3136;48.788;9.772;2022-08-25T05:23:29;9.60;;;7.30;;
6205;SDS011;3136;48.788;9.772;2022-08-25T05:26:00;10.10;;;6.70;;
6205;SDS011;3136;48.788;9.772;2022-08-25T05:28:29;11.37;;;7.30;;
6205;SDS011;3136;48.788;9.772;2022-08-25T05:30:58;9.33;;;7.40;;
6205;SDS011;3136;48.788;9.772;2022-08-25T05:33:25;9.13;;;7.40;;
6205;SDS011;3136;48.788;9.772;2022-08-25T05:35:52;9.07;;;6.97;;
6205;SDS011;3136;48.788;9.772;2022-08-25T05:38:17;8.43;;;7.40;;
6205;SDS011;3136;48.788;9.772;2022-08-25T05:40:43;10.13;;;6.67;;
6205;SDS011;3136;48.788;9.772;2022-08-25T05:43:09;9.30;;;7.37;;
6205;SDS011;3136;48.788;9.772;2022-08-25T05:45:34;8.97;;;7.17;;
6205;SDS011;3136;48.788;9.772;2022-08-25T05:48:00;8.40;;;6.93;;
6205;SDS011;3136;48.788;9.772;2022-08-25T05:50:26;8.90;;;7.10;;
6205;SDS011;3136;48.788;9.772;2022-08-25T05:52:52;10.30;;;7.73;;
6205;SDS011;3136;48.788;9.772;2022-08-25T05:55:18;10.83;;;8.60;;
6205;SDS011;3136;48.788;9.772;2022-08-25T05:57:43;11.47;;;8.50;;
6205;SDS011;3136;48.788;9.772;2022-08-25T06:00:09;9.80;;;8.40;;
6205;SDS011;3136;48.788;9.772;2022-08-25T06:02:36;9.70;;;8.10;;
6205;SDS011;3136;48.788;9.772;2022-08-25T06:05:08;10.33;;;8.13;;
6205;SDS011;3136;48.788;9.772;2022-08-25T06:07:35;16.10;;;9.07;;
6205;SDS011;3136;48.788;9.772;2022-08-25T06:10:02;11.97;;;8.67;;
6205;SDS011;3136;48.788;9.772;2022-08-25T06:12:29;10.73;;;8.13;;
6205;SDS011;3136;48.788;9.772;2022-08-25T06:14:56;10.40;;;8.77;;
6205;SDS011;3136;48.788;9.772;2022-08-25T06:17:22;14.23;;;10.23;;
6205;SDS011;3136;48.788;9.772;2022-08-25T06:19:48;12.67;;;10.33;;
6205;SDS011;3136;48.788;9.772;2022-08-25T06:22:13;15.97;;;9.87;;
6205;SDS011;3136;48.788;9.772;2022-08-25T06:24:39;13.47;;;9.50;;
6205;SDS011;3136;48.788;9.772;2022-08-25T06:27:04;11.20;;;8.80;;
6205;SDS011;3136;48.788;9.772;2022-08-25T06:29:30;12.37;;;9.63;;
6205;SDS011;3136;48.788;9.772;2022-08-25T06:31:56;11.77;;;8.33;;
6205;SDS011;3136;48.788;9.772;2022-08-25T06:34:22;12.30;;;9.70;;
6205;SDS011;3136;48.788;9.772;2022-08-25T06:36:47;10.40;;;9.07;;
6205;SDS011;3136;48.788;9.772;2022-08-25T06:39:14;12.73;;;8.73;;
6205;SDS011;3136;48.788;9.772;2022-08-25T06:41:40;14.30;;;9.17;;
6205;SDS011;3136;48.788;9.772;2022-08-25T06:44:06;10.77;;;8.10;;
6205;SDS011;3136;48.788;9.772;2022-08-25T06:46:31;10.37;;;7.40;;
6205;SDS011;3136;48.788;9.772;2022-08-25T06:48:58;9.93;;;7.93;;
6205;SDS011;3136;48.788;9.772;2022-08-25T06:51:24;8.70;;;7.80;;
6205;SDS011;3136;48.788;9.772;2022-08-25T06:53:51;11.20;;;8.03;;
6205;SDS011;3136;48.788;9.772;2022-08-25T06:56:18;9.27;;;7.63;;
6205;SDS011;3136;48.788;9.772;2022-08-25T06:58:45;8.43;;;7.00;;
6205;SDS011;3136;48.788;9.772;2022-08-25T07:01:13;10.03;;;7.10;;
6205;SDS011;3136;48.788;9.772;2022-08-25T07:03:41;7.87;;;6.63;;
6205;SDS011;3136;48.788;9.772;2022-08-25T07:06:07;8.03;;;7.23;;
6205;SDS011;3136;48.788;9.772;2022-08-25T07:08:33;8.40;;;7.40;;
6205;SDS011;3136;48.788;9.772;2022-08-25T07:11:06;9.27;;;7.13;;
6205;SDS011;3136;48.788;9.772;2022-08-25T07:13:36;11.07;;;7.47;;
6205;SDS011;3136;48.788;9.772;2022-08-25T07:16:02;9.77;;;7.47;;
6205;SDS011;3136;48.788;9.772;2022-08-25T07:18:29;8.00;;;7.13;;
6205;SDS011;3136;48.788;9.772;2022-08-25T07:20:55;9.50;;;7.23;;
6205;SDS011;3136;48.788;9.772;2022-08-25T07:23:22;8.10;;;6.67;;
6205;SDS011;3136;48.788;9.772;2022-08-25T07:25:48;8.37;;;6.47;;
6205;SDS011;3136;48.788;9.772;2022-08-25T07:28:15;8.87;;;6.80;;
6205;SDS011;3136;48.788;9.772;2022-08-25T07:30:41;8.93;;;6.50;;
6205;SDS011;3136;48.788;9.772;2022-08-25T07:33:07;7.40;;;6.70;;
6205;SDS011;3136;48.788;9.772;2022-08-25T07:35:33;7.77;;;6.80;;
6205;SDS011;3136;48.788;9.772;2022-08-25T07:38:00;8.93;;;6.80;;
6205;SDS011;3136;48.788;9.772;2022-08-25T07:40:29;7.67;;;6.87;;
6205;SDS011;3136;48.788;9.772;2022-08-25T07:42:57;7.33;;;6.63;;
6205;SDS011;3136;48.788;9.772;2022-08-25T07:45:25;9.07;;;6.37;;
6205;SDS011;3136;48.788;9.772;2022-08-25T07:48:03;7.07;;;6.07;;
6205;SDS011;3136;48.788;9.772;2022-08-25T07:50:36;9.80;;;6.90;;
6205;SDS011;3136;48.788;9.772;2022-08-25T07:53:06;7.10;;;6.10;;
6205;SDS011;3136;48.788;9.772;2022-08-25T07:55:32;6.67;;;5.60;;
6205;SDS011;3136;48.788;9.772;2022-08-25T07:58:00;6.47;;;5.77;;
6205;SDS011;3136;48.788;9.772;2022-08-25T08:00:28;9.23;;;6.43;;
6205;SDS011;3136;48.788;9.772;2022-08-25T08:02:56;10.20;;;6.30;;
6205;SDS011;3136;48.788;9.772;2022-08-25T08:05:23;6.60;;;5.67;;
6205;SDS011;3136;48.788;9.772;2022-08-25T08:07:49;7.20;;;5.63;;
6205;SDS011;3136;48.788;9.772;2022-08-25T08:10:15;8.20;;;5.60;;
6205;SDS011;3136;48.788;9.772;2022-08-25T08:12:41;8.47;;;5.17;;
6205;SDS011;3136;48.788;9.772;2022-08-25T08:15:06;6.27;;;5.10;;
6205;SDS011;3136;48.788;9.772;2022-08-25T08:17:32;7.27;;;5.60;;
6205;SDS011;3136;48.788;9.772;2022-08-25T08:19:58;5.60;;;4.93;;
6205;SDS011;3136;48.788;9.772;2022-08-25T08:22:24;5.50;;;5.00;;
6205;SDS011;3136;48.788;9.772;2022-08-25T08:24:50;5.37;;;4.87;;
6205;SDS011;3136;48.788;9.772;2022-08-25T08:27:15;5.60;;;5.10;;
6205;SDS011;3136;48.788;9.772;2022-08-25T08:29:41;5.40;;;4.70;;
6205;SDS011;3136;48.788;9.772;2022-08-25T08:32:08;6.77;;;4.67;;
6205;SDS011;3136;48.788;9.772;2022-08-25T08:34:37;6.57;;;5.27;;
6205;SDS011;3136;48.788;9.772;2022-08-25T08:37:04;6.37;;;4.87;;
6205;SDS011;3136;48.788;9.772;2022-08-25T08:39:30;5.70;;;4.60;;
6205;SDS011;3136;48.788;9.772;2022-08-25T08:41:59;5.70;;;4.67;;
6205;SDS011;3136;48.788;9.772;2022-08-25T08:47:14;6.57;;;4.80;;
6205;SDS011;3136;48.788;9.772;2022-08-25T08:55:39;6.07;;;4.47;;
6205;SDS011;3136;48.788;9.772;2022-08-25T08:58:09;5.30;;;4.80;;
6205;SDS011;3136;48.788;9.772;2022-08-25T09:00:41;7.90;;;4.50;;
6205;SDS011;3136;48.788;9.772;2022-08-25T09:03:11;7.63;;;4.47;;
6205;SDS011;3136;48.788;9.772;2022-08-25T09:05:49;4.90;;;4.40;;
6205;SDS011;3136;48.788;9.772;2022-08-25T09:08:17;4.70;;;4.30;;
6205;SDS011;3136;48.788;9.772;2022-08-25T09:16:01;5.53;;;4.57;;
6205;SDS011;3136;48.788;9.772;2022-08-25T09:19:08;4.80;;;4.30;;
6205;SDS011;3136;48.788;9.772;2022-08-25T09:22:00;5.90;;;4.10;;
6205;SDS011;3136;48.788;9.772;2022-08-25T09:24:55;7.37;;;4.67;;
6205;SDS011;3136;48.788;9.772;2022-08-25T09:30:03;4.57;;;4.07;;
6205;SDS011;3136;48.788;9.772;2022-08-25T09:32:30;6.10;;;4.27;;
6205;SDS011;3136;48.788;9.772;2022-08-25T09:35:04;4.80;;;4.33;;
6205;SDS011;3136;48.788;9.772;2022-08-25T09:37:31;4.80;;;4.40;;
6205;SDS011;3136;48.788;9.772;2022-08-25T09:39:57;5.33;;;4.50;;
6205;SDS011;3136;48.788;9.772;2022-08-25T09:42:23;5.83;;;3.93;;
6205;SDS011;3136;48.788;9.772;2022-08-25T09:45:13;6.33;;;4.70;;
6205;SDS011;3136;48.788;9.772;2022-08-25T09:47:43;4.57;;;4.13;;
6205;SDS011;3136;48.788;9.772;2022-08-25T09:50:16;4.73;;;4.27;;
6205;SDS011;3136;48.788;9.772;2022-08-25T09:52:44;4.70;;;4.10;;
6205;SDS011;3136;48.788;9.772;2022-08-25T10:05:49;5.20;;;4.10;;
6205;SDS011;3136;48.788;9.772;2022-08-25T10:09:11;4.87;;;3.90;;
6205;SDS011;3136;48.788;9.772;2022-08-25T10:11:14;5.20;;;4.40;;
6205;SDS011;3136;48.788;9.772;2022-08-25T10:14:18;7.07;;;3.97;;
6205;SDS011;3136;48.788;9.772;2022-08-25T10:16:44;7.30;;;3.90;;
6205;SDS011;3136;48.788;9.772;2022-08-25T10:21:45;7.00;;;4.07;;
6205;SDS011;3136;48.788;9.772;2022-08-25T10:24:29;6.47;;;3.90;;
6205;SDS011;3136;48.788;9.772;2022-08-25T10:45:50;5.65;;;3.63;;
6205;SDS011;3136;48.788;9.772;2022-08-25T10:56:41;3.53;;;3.20;;
6205;SDS011;3136;48.788;9.772;2022-08-25T11:04:44;4.03;;;3.60;;
6205;SDS011;3136;48.788;9.772;2022-08-25T11:07:34;3.88;;;3.20;;
6205;SDS011;3136;48.788;9.772;2022-08-25T11:10:05;3.65;;;3.33;;
6205;SDS011;3136;48.788;9.772;2022-08-25T11:12:40;3.40;;;3.10;;
6205;SDS011;3136;48.788;9.772;2022-08-25T11:15:23;4.25;;;3.22;;
6205;SDS011;3136;48.788;9.772;2022-08-25T11:18:13;3.85;;;3.10;;
6205;SDS011;3136;48.788;9.772;2022-08-25T11:20:45;2.97;;;2.78;;
6205;SDS011;3136;48.788;9.772;2022-08-25T11:23:37;4.05;;;3.17;;
6205;SDS011;3136;48.788;9.772;2022-08-25T11:26:12;3.08;;;2.88;;
6205;SDS011;3136;48.788;9.772;2022-08-25T11:31:23;3.20;;;2.72;;
6205;SDS011;3136;48.788;9.772;2022-08-25T11:33:57;5.35;;;3.13;;
6205;SDS011;3136;48.788;9.772;2022-08-25T11:36:26;2.92;;;2.70;;
6205;SDS011;3136;48.788;9.772;2022-08-25T11:39:06;3.95;;;3.05;;
6205;SDS011;3136;48.788;9.772;2022-08-25T11:54:56;2.70;;;2.50;;
6205;SDS011;3136;48.788;9.772;2022-08-25T11:57:41;2.70;;;2.50;;
6205;SDS011;3136;48.788;9.772;2022-08-25T12:02:41;3.47;;;2.63;;
6205;SDS011;3136;48.788;9.772;2022-08-25T12:05:10;3.25;;;2.40;;
6205;SDS011;3136;48.788;9.772;2022-08-25T12:10:12;2.85;;;2.40;;
6205;SDS011;3136;48.788;9.772;2022-08-25T12:15:20;5.60;;;2.50;;
6205;SDS011;3136;48.788;9.772;2022-08-25T12:26:03;2.67;;;2.47;;
6205;SDS011;3136;48.788;9.772;2022-08-25T12:31:28;4.45;;;2.75;;
6205;SDS011;3136;48.788;9.772;2022-08-25T12:36:59;2.85;;;2.30;;
6205;SDS011;3136;48.788;9.772;2022-08-25T12:39:30;4.60;;;2.65;;
6205;SDS011;3136;48.788;9.772;2022-08-25T12:42:00;3.75;;;2.95;;
6205;SDS011;3136;48.788;9.772;2022-08-25T12:47:12;5.05;;;2.80;;
6205;SDS011;3136;48.788;9.772;2022-08-25T12:49:44;3.67;;;2.90;;
6205;SDS011;3136;48.788;9.772;2022-08-25T12:52:11;5.63;;;2.78;;
6205;SDS011;3136;48.788;9.772;2022-08-25T12:54:49;3.35;;;2.70;;
6205;SDS011;3136;48.788;9.772;2022-08-25T13:00:17;2.92;;;2.30;;
6205;SDS011;3136;48.788;9.772;2022-08-25T13:03:01;2.50;;;2.30;;
6205;SDS011;3136;48.788;9.772;2022-08-25T13:11:46;3.42;;;2.80;;
6205;SDS011;3136;48.788;9.772;2022-08-25T13:14:17;3.38;;;2.40;;
6205;SDS011;3136;48.788;9.772;2022-08-25T13:16:55;3.10;;;2.80;;
6205;SDS011;3136;48.788;9.772;2022-08-25T13:19:23;4.47;;;2.60;;
6205;SDS011;3136;48.788;9.772;2022-08-25T13:21:49;4.90;;;2.88;;
6205;SDS011;3136;48.788;9.772;2022-08-25T13:27:00;5.68;;;2.60;;
6205;SDS011;3136;48.788;9.772;2022-08-25T13:29:33;4.00;;;2.53;;
6205;SDS011;3136;48.788;9.772;2022-08-25T13:32:02;3.53;;;2.90;;
6205;SDS011;3136;48.788;9.772;2022-08-25T13:34:31;4.97;;;2.80;;
6205;SDS011;3136;48.788;9.772;2022-08-25T13:37:05;4.18;;;2.83;;
6205;SDS011;3136;48.788;9.772;2022-08-25T13:42:41;3.35;;;2.55;;
6205;SDS011;3136;48.788;9.772;2022-08-25T13:45:13;3.08;;;2.38;;
6205;SDS011;3136;48.788;9.772;2022-08-25T13:47:41;4.57;;;2.97;;
6205;SDS011;3136;48.788;9.772;2022-08-25T13:53:04;3.78;;;2.50;;
6205;SDS011;3136;48.788;9.772;2022-08-25T13:55:38;3.05;;;2.83;;
6205;SDS011;3136;48.788;9.772;2022-08-25T13:58:26;4.10;;;2.75;;
6205;SDS011;3136;48.788;9.772;2022-08-25T14:03:48;4.35;;;3.00;;
6205;SDS011;3136;48.788;9.772;2022-08-25T14:08:41;5.55;;;2.88;;
6205;SDS011;3136;48.788;9.772;2022-08-25T14:14:28;3.05;;;2.47;;
6205;SDS011;3136;48.788;9.772;2022-08-25T14:16:47;3.90;;;2.58;;
6205;SDS011;3136;48.788;9.772;2022-08-25T14:19:14;4.28;;;2.88;;
6205;SDS011;3136;48.788;9.772;2022-08-25T14:21:42;3.60;;;3.03;;
6205;SDS011;3136;48.788;9.772;2022-08-25T14:24:08;4.20;;;2.70;;
6205;SDS011;3136;48.788;9.772;2022-08-25T14:26:38;3.20;;;2.72;;
6205;SDS011;3136;48.788;9.772;2022-08-25T14:29:04;3.88;;;3.00;;
6205;SDS011;3136;48.788;9.772;2022-08-25T14:31:33;3.33;;;3.03;;
6205;SDS011;3136;48.788;9.772;2022-08-25T14:34:04;4.28;;;3.00;;
6205;SDS011;3136;48.788;9.772;2022-08-25T14:36:33;3.00;;;2.70;;
6205;SDS011;3136;48.788;9.772;2022-08-25T14:39:00;5.93;;;2.83;;
6205;SDS011;3136;48.788;9.772;2022-08-25T14:41:31;3.03;;;2.67;;
6205;SDS011;3136;48.788;9.772;2022-08-25T14:43:59;3.55;;;2.85;;
6205;SDS011;3136;48.788;9.772;2022-08-25T14:46:26;4.35;;;2.90;;
6205;SDS011;3136;48.788;9.772;2022-08-25T14:48:54;3.15;;;2.88;;
6205;SDS011;3136;48.788;9.772;2022-08-25T14:51:23;3.13;;;2.83;;
6205;SDS011;3136;48.788;9.772;2022-08-25T14:53:51;3.75;;;3.45;;
6205;SDS011;3136;48.788;9.772;2022-08-25T14:56:18;4.72;;;3.45;;
6205;SDS011;3136;48.788;9.772;2022-08-25T14:58:44;4.80;;;3.22;;
6205;SDS011;3136;48.788;9.772;2022-08-25T15:01:10;6.32;;;3.17;;
6205;SDS011;3136;48.788;9.772;2022-08-25T15:03:38;4.05;;;3.05;;
6205;SDS011;3136;48.788;9.772;2022-08-25T15:06:07;2.90;;;2.70;;
6205;SDS011;3136;48.788;9.772;2022-08-25T15:08:35;3.72;;;3.40;;
6205;SDS011;3136;48.788;9.772;2022-08-25T15:11:19;4.85;;;3.30;;
6205;SDS011;3136;48.788;9.772;2022-08-25T15:13:45;3.55;;;3.20;;
6205;SDS011;3136;48.788;9.772;2022-08-25T15:16:11;4.20;;;3.45;;
6205;SDS011;3136;48.788;9.772;2022-08-25T15:18:42;3.55;;;3.03;;
6205;SDS011;3136;48.788;9.772;2022-08-25T15:21:07;3.10;;;2.78;;
6205;SDS011;3136;48.788;9.772;2022-08-25T15:23:33;5.22;;;3.17;;
6205;SDS011;3136;48.788;9.772;2022-08-25T15:25:59;3.67;;;3.10;;
6205;SDS011;3136;48.788;9.772;2022-08-25T15:28:25;3.63;;;3.33;;
6205;SDS011;3136;48.788;9.772;2022-08-25T15:30:50;3.40;;;3.10;;
6205;SDS011;3136;48.788;9.772;2022-08-25T15:33:16;3.35;;;3.05;;
6205;SDS011;3136;48.788;9.772;2022-08-25T15:35:42;3.95;;;3.00;;
6205;SDS011;3136;48.788;9.772;2022-08-25T15:38:07;5.30;;;3.10;;
6205;SDS011;3136;48.788;9.772;2022-08-25T15:40:33;3.60;;;3.30;;
6205;SDS011;3136;48.788;9.772;2022-08-25T15:43:01;4.75;;;3.10;;
6205;SDS011;3136;48.788;9.772;2022-08-25T15:45:26;4.40;;;3.35;;
6205;SDS011;3136;48.788;9.772;2022-08-25T15:47:52;5.00;;;3.30;;
6205;SDS011;3136;48.788;9.772;2022-08-25T15:50:18;4.65;;;3.20;;
6205;SDS011;3136;48.788;9.772;2022-08-25T15:52:45;5.22;;;3.33;;
6205;SDS011;3136;48.788;9.772;2022-08-25T15:55:11;3.65;;;2.92;;
6205;SDS011;3136;48.788;9.772;2022-08-25T15:57:38;3.83;;;3.00;;
6205;SDS011;3136;48.788;9.772;2022-08-25T16:00:05;3.65;;;2.90;;
6205;SDS011;3136;48.788;9.772;2022-08-25T16:02:35;3.97;;;3.40;;
6205;SDS011;3136;48.788;9.772;2022-08-25T16:05:00;3.58;;;3.28;;
6205;SDS011;3136;48.788;9.772;2022-08-25T16:07:26;5.18;;;3.40;;
6205;SDS011;3136;48.788;9.772;2022-08-25T16:09:55;6.63;;;3.90;;
6205;SDS011;3136;48.788;9.772;2022-08-25T16:12:22;5.63;;;4.13;;
6205;SDS011;3136;48.788;9.772;2022-08-25T16:14:48;5.40;;;3.97;;
6205;SDS011;3136;48.788;9.772;2022-08-25T16:17:15;7.18;;;3.83;;
6205;SDS011;3136;48.788;9.772;2022-08-25T16:19:40;11.90;;;3.90;;
6205;SDS011;3136;48.788;9.772;2022-08-25T16:22:06;7.60;;;3.70;;
6205;SDS011;3136;48.788;9.772;2022-08-25T16:24:32;4.63;;;3.20;;
6205;SDS011;3136;48.788;9.772;2022-08-25T16:26:59;3.85;;;3.35;;
6205;SDS011;3136;48.788;9.772;2022-08-25T16:29:29;9.60;;;3.80;;
6205;SDS011;3136;48.788;9.772;2022-08-25T16:31:58;5.72;;;3.83;;
6205;SDS011;3136;48.788;9.772;2022-08-25T16:34:24;5.55;;;3.80;;
6205;SDS011;3136;48.788;9.772;2022-08-25T16:36:51;4.03;;;3.53;;
6205;SDS011;3136;48.788;9.772;2022-08-25T16:39:18;4.88;;;3.60;;
6205;SDS011;3136;48.788;9.772;2022-08-25T16:41:45;4.40;;;3.75;;
6205;SDS011;3136;48.788;9.772;2022-08-25T16:44:10;6.22;;;3.22;;
6205;SDS011;3136;48.788;9.772;2022-08-25T16:46:36;3.60;;;3.30;;
6205;SDS011;3136;48.788;9.772;2022-08-25T16:49:03;4.00;;;3.57;;
6205;SDS011;3136;48.788;9.772;2022-08-25T16:51:29;3.63;;;3.30;;
6205;SDS011;3136;48.788;9.772;2022-08-25T16:53:55;6.07;;;3.53;;
6205;SDS011;3136;48.788;9.772;2022-08-25T16:56:40;4.28;;;3.88;;
6205;SDS011;3136;48.788;9.772;2022-08-25T16:59:07;5.50;;;3.30;;
6205;SDS011;3136;48.788;9.772;2022-08-25T17:01:35;3.70;;;3.40;;
6205;SDS011;3136;48.788;9.772;2022-08-25T17:04:02;3.90;;;3.50;;
6205;SDS011;3136;48.788;9.772;2022-08-25T17:06:29;4.10;;;3.33;;
6205;SDS011;3136;48.788;9.772;2022-08-25T17:08:58;6.80;;;3.57;;
6205;SDS011;3136;48.788;9.772;2022-08-25T17:11:28;3.47;;;3.10;;
6205;SDS011;3136;48.788;9.772;2022-08-25T17:13:57;5.43;;;3.13;;
6205;SDS011;3136;48.788;9.772;2022-08-25T17:16:26;5.50;;;3.00;;
6205;SDS011;3136;48.788;9.772;2022-08-25T17:18:57;5.43;;;3.50;;
6205;SDS011;3136;48.788;9.772;2022-08-25T17:21:25;5.07;;;3.57;;
6205;SDS011;3136;48.788;9.772;2022-08-25T17:23:52;5.27;;;4.00;;
6205;SDS011;3136;48.788;9.772;2022-08-25T17:26:19;4.77;;;3.53;;
6205;SDS011;3136;48.788;9.772;2022-08-25T17:28:46;4.80;;;3.87;;
6205;SDS011;3136;48.788;9.772;2022-08-25T17:31:12;4.57;;;3.67;;
6205;SDS011;3136;48.788;9.772;2022-08-25T17:33:38;6.17;;;3.47;;
6205;SDS011;3136;48.788;9.772;2022-08-25T17:36:04;4.90;;;3.53;;
6205;SDS011;3136;48.788;9.772;2022-08-25T17:38:31;6.20;;;3.90;;
6205;SDS011;3136;48.788;9.772;2022-08-25T17:40:58;5.77;;;4.20;;
6205;SDS011;3136;48.788;9.772;2022-08-25T17:43:26;4.57;;;3.70;;